Atlas, Michigan
Current Conditions -  °F | °C
As of 4:53 AM on Monday 22 Dec 2014 (Local Time) from KFNT Reporting Station
Haze Haze  
Wind Chill: -7°   Ceiling: Unl
Heat Index: -2°   Visibility: 6mi
Dew Point: -5°   Wind: 8mph
Humidity: 81%   Direction: 130°SE
Pressure: 30.11"   Gusts: NA
Location:  42.94°N, 83.53°W
Report Text: KFNT 220953Z AUTO 13007KT 6SM HZ CLR M02/M05 A3011 RMK AO2 SLP205 T10221050
Loading
Personal Weather Stations






























Interactive Weather Map New forecast layout! Learn more

10-Day Weather Forecast

Advertisements
Track Severe Weather on mobile